sensor_id;sensor_type;location;lat;lon;timestamp;pressure;altitude;pressure_sealevel;temperature;humidity
50349;BME280;36250;48.740;22.174;2023-03-13T00:01:24;100691.03;;;3.86;59.99
50349;BME280;36250;48.740;22.174;2023-03-13T00:03:49;100695.75;;;3.84;59.78
50349;BME280;36250;48.740;22.174;2023-03-13T00:06:15;100693.06;;;3.84;60.20
50349;BME280;36250;48.740;22.174;2023-03-13T00:08:42;100693.47;;;3.81;60.46
50349;BME280;36250;48.740;22.174;2023-03-13T00:11:10;100689.13;;;3.80;60.03
50349;BME280;36250;48.740;22.174;2023-03-13T00:13:35;100689.13;;;3.80;59.80
50349;BME280;36250;48.740;22.174;2023-03-13T00:16:09;100698.03;;;3.80;59.57
50349;BME280;36250;48.740;22.174;2023-03-13T00:18:35;100700.94;;;3.79;59.79
50349;BME280;36250;48.740;22.174;2023-03-13T00:21:04;100699.47;;;3.76;59.97
50349;BME280;36250;48.740;22.174;2023-03-13T00:23:30;100706.94;;;3.81;59.68
50349;BME280;36250;48.740;22.174;2023-03-13T00:26:01;100700.72;;;3.80;59.24
50349;BME280;36250;48.740;22.174;2023-03-13T00:28:28;100695.13;;;3.82;59.33
50349;BME280;36250;48.740;22.174;2023-03-13T00:33:39;100689.75;;;3.82;59.78
50349;BME280;36250;48.740;22.174;2023-03-13T00:36:13;100684.78;;;3.79;59.33
50349;BME280;36250;48.740;22.174;2023-03-13T00:38:39;100704.25;;;3.81;59.14
50349;BME280;36250;48.740;22.174;2023-03-13T00:41:16;100699.13;;;3.86;59.20
50349;BME280;36250;48.740;22.174;2023-03-13T00:43:42;100705.78;;;3.90;59.01
50349;BME280;36250;48.740;22.174;2023-03-13T00:46:09;100702.06;;;3.91;60.04
50349;BME280;36250;48.740;22.174;2023-03-13T00:48:35;100705.13;;;3.88;59.46
50349;BME280;36250;48.740;22.174;2023-03-13T00:51:02;100700.38;;;3.90;60.14
50349;BME280;36250;48.740;22.174;2023-03-13T00:53:28;100703.06;;;3.90;59.59
50349;BME280;36250;48.740;22.174;2023-03-13T00:55:59;100703.06;;;3.90;60.01
50349;BME280;36250;48.740;22.174;2023-03-13T00:58:26;100698.31;;;3.92;59.81
50349;BME280;36250;48.740;22.174;2023-03-13T01:00:52;100693.56;;;3.94;59.42
50349;BME280;36250;48.740;22.174;2023-03-13T01:03:19;100687.75;;;3.90;59.35
50349;BME280;36250;48.740;22.174;2023-03-13T01:05:45;100674.69;;;3.87;59.57
50349;BME280;36250;48.740;22.174;2023-03-13T01:08:18;100684.63;;;3.87;58.52
50349;BME280;36250;48.740;22.174;2023-03-13T01:10:44;100692.06;;;3.85;58.76
50349;BME280;36250;48.740;22.174;2023-03-13T01:13:09;100687.91;;;3.82;59.21
50349;BME280;36250;48.740;22.174;2023-03-13T01:15:34;100682.97;;;3.86;59.56
50349;BME280;36250;48.740;22.174;2023-03-13T01:18:00;100676.53;;;3.87;59.91
50349;BME280;36250;48.740;22.174;2023-03-13T01:20:25;100675.91;;;3.85;59.90
50349;BME280;36250;48.740;22.174;2023-03-13T01:22:50;100677.38;;;3.87;59.67
50349;BME280;36250;48.740;22.174;2023-03-13T01:25:16;100674.88;;;3.86;59.79
50349;BME280;36250;48.740;22.174;2023-03-13T01:27:41;100677.59;;;3.86;59.83
50349;BME280;36250;48.740;22.174;2023-03-13T01:30:07;100675.69;;;3.86;59.77
50349;BME280;36250;48.740;22.174;2023-03-13T01:32:33;100674.22;;;3.84;59.57
50349;BME280;36250;48.740;22.174;2023-03-13T01:34:58;100684.63;;;3.87;60.21
50349;BME280;36250;48.740;22.174;2023-03-13T01:37:23;100657.19;;;3.77;59.11
50349;BME280;36250;48.740;22.174;2023-03-13T01:39:49;100676.50;;;3.80;59.67
50349;BME280;36250;48.740;22.174;2023-03-13T01:42:14;100675.03;;;3.78;59.66
50349;BME280;36250;48.740;22.174;2023-03-13T01:44:54;100671.09;;;3.80;59.49
50349;BME280;36250;48.740;22.174;2023-03-13T01:47:20;100666.56;;;3.81;60.11
50349;BME280;36250;48.740;22.174;2023-03-13T01:49:46;100668.63;;;3.79;60.24
50349;BME280;36250;48.740;22.174;2023-03-13T01:52:19;100667.56;;;3.80;59.98
50349;BME280;36250;48.740;22.174;2023-03-13T01:54:56;100671.09;;;3.80;60.75
50349;BME280;36250;48.740;22.174;2023-03-13T01:57:29;100666.09;;;3.77;60.55
50349;BME280;36250;48.740;22.174;2023-03-13T02:00:02;100661.56;;;3.78;60.18
50349;BME280;36250;48.740;22.174;2023-03-13T02:02:29;100663.25;;;3.79;59.58
50349;BME280;36250;48.740;22.174;2023-03-13T02:04:58;100660.53;;;3.79;60.49
50349;BME280;36250;48.740;22.174;2023-03-13T02:07:39;100657.84;;;3.79;60.16
50349;BME280;36250;48.740;22.174;2023-03-13T02:10:07;100665.94;;;3.79;60.27
50349;BME280;36250;48.740;22.174;2023-03-13T02:12:35;100658.47;;;3.81;60.86
50349;BME280;36250;48.740;22.174;2023-03-13T02:15:05;100664.25;;;3.78;60.30
50349;BME280;36250;48.740;22.174;2023-03-13T02:17:33;100651.81;;;3.77;61.09
50349;BME280;36250;48.740;22.174;2023-03-13T02:19:59;100653.47;;;3.78;60.23
50349;BME280;36250;48.740;22.174;2023-03-13T02:22:48;100643.34;;;3.80;59.86
50349;BME280;36250;48.740;22.174;2023-03-13T02:27:55;100661.34;;;3.79;59.86
50349;BME280;36250;48.740;22.174;2023-03-13T02:30:22;100663.41;;;3.77;59.24
50349;BME280;36250;48.740;22.174;2023-03-13T02:32:48;100669.63;;;3.78;59.50
50349;BME280;36250;48.740;22.174;2023-03-13T02:35:17;100681.41;;;3.77;59.05
50349;BME280;36250;48.740;22.174;2023-03-13T02:37:47;100677.72;;;3.78;59.39
50349;BME280;36250;48.740;22.174;2023-03-13T02:40:17;100682.09;;;3.79;59.97
50349;BME280;36250;48.740;22.174;2023-03-13T02:42:46;100675.47;;;3.81;60.63
50349;BME280;36250;48.740;22.174;2023-03-13T02:45:14;100674.63;;;3.81;59.47
50349;BME280;36250;48.740;22.174;2023-03-13T02:47:40;100670.50;;;3.85;59.92
50349;BME280;36250;48.740;22.174;2023-03-13T02:50:05;100690.00;;;3.87;58.95
50349;BME280;36250;48.740;22.174;2023-03-13T02:52:41;100694.78;;;3.91;59.42
50349;BME280;36250;48.740;22.174;2023-03-13T02:55:15;100696.25;;;3.94;59.11
50349;BME280;36250;48.740;22.174;2023-03-13T02:57:46;100694.03;;;3.97;59.51
50349;BME280;36250;48.740;22.174;2023-03-13T03:00:12;100714.34;;;4.00;60.04
50349;BME280;36250;48.740;22.174;2023-03-13T03:02:38;100710.59;;;4.01;59.09
50349;BME280;36250;48.740;22.174;2023-03-13T03:05:04;100718.31;;;4.04;58.96
50349;BME280;36250;48.740;22.174;2023-03-13T03:07:29;100713.38;;;4.08;58.71
50349;BME280;36250;48.740;22.174;2023-03-13T03:09:55;100710.84;;;4.06;58.54
50349;BME280;36250;48.740;22.174;2023-03-13T03:12:20;100721.25;;;4.09;57.54
50349;BME280;36250;48.740;22.174;2023-03-13T03:14:46;100724.56;;;4.11;57.65
50349;BME280;36250;48.740;22.174;2023-03-13T03:17:11;100737.22;;;4.11;58.32
50349;BME280;36250;48.740;22.174;2023-03-13T03:19:36;100740.75;;;4.11;57.90
50349;BME280;36250;48.740;22.174;2023-03-13T03:22:02;100747.41;;;4.15;58.51
50349;BME280;36250;48.740;22.174;2023-03-13T03:24:27;100744.91;;;4.14;58.28
50349;BME280;36250;48.740;22.174;2023-03-13T03:26:52;100746.53;;;4.08;59.19
50349;BME280;36250;48.740;22.174;2023-03-13T03:29:18;100750.88;;;4.09;59.33
50349;BME280;36250;48.740;22.174;2023-03-13T03:31:43;100752.56;;;4.10;59.33
50349;BME280;36250;48.740;22.174;2023-03-13T03:34:08;100760.25;;;4.13;58.76
50349;BME280;36250;48.740;22.174;2023-03-13T03:36:34;100752.19;;;4.13;58.21
50349;BME280;36250;48.740;22.174;2023-03-13T03:38:59;100759.22;;;4.14;58.92
50349;BME280;36250;48.740;22.174;2023-03-13T03:41:24;100740.50;;;4.06;58.87
50349;BME280;36250;48.740;22.174;2023-03-13T03:43:50;100748.00;;;4.11;58.61
50349;BME280;36250;48.740;22.174;2023-03-13T03:46:15;100756.66;;;4.06;58.80
50349;BME280;36250;48.740;22.174;2023-03-13T03:48:41;100757.31;;;4.08;58.35
50349;BME280;36250;48.740;22.174;2023-03-13T03:51:06;100762.28;;;4.11;59.28
50349;BME280;36250;48.740;22.174;2023-03-13T03:53:32;100760.25;;;4.13;59.28
50349;BME280;36250;48.740;22.174;2023-03-13T03:55:58;100759.22;;;4.14;58.67
50349;BME280;36250;48.740;22.174;2023-03-13T03:58:23;100764.00;;;4.19;59.01
50349;BME280;36250;48.740;22.174;2023-03-13T04:00:49;100762.16;;;4.19;58.55
50349;BME280;36250;48.740;22.174;2023-03-13T04:03:14;100764.44;;;4.16;58.64
50349;BME280;36250;48.740;22.174;2023-03-13T04:05:41;100763.97;;;4.12;57.85
50349;BME280;36250;48.740;22.174;2023-03-13T04:08:08;100763.75;;;4.14;57.71
50349;BME280;36250;48.740;22.174;2023-03-13T04:10:33;100767.28;;;4.14;58.02
50349;BME280;36250;48.740;22.174;2023-03-13T04:12:59;100764.22;;;4.17;58.65
50349;BME280;36250;48.740;22.174;2023-03-13T04:15:24;100757.41;;;4.21;57.02
50349;BME280;36250;48.740;22.174;2023-03-13T04:17:49;100754.31;;;4.24;58.05
50349;BME280;36250;48.740;22.174;2023-03-13T04:20:15;100760.34;;;4.26;57.40
50349;BME280;36250;48.740;22.174;2023-03-13T04:22:41;100779.03;;;4.28;57.53
50349;BME280;36250;48.740;22.174;2023-03-13T04:25:07;100781.50;;;4.29;57.30
50349;BME280;36250;48.740;22.174;2023-03-13T04:27:33;100783.81;;;4.32;56.93
50349;BME280;36250;48.740;22.174;2023-03-13T04:29:59;100775.91;;;4.31;56.82
50349;BME280;36250;48.740;22.174;2023-03-13T04:32:25;100781.56;;;4.36;57.17
50349;BME280;36250;48.740;22.174;2023-03-13T04:34:50;100780.34;;;4.38;56.84
50349;BME280;36250;48.740;22.174;2023-03-13T04:37:16;100781.16;;;4.39;55.67
50349;BME280;36250;48.740;22.174;2023-03-13T04:39:41;100780.34;;;4.38;56.01
50349;BME280;36250;48.740;22.174;2023-03-13T04:42:09;100775.56;;;4.40;56.59
50349;BME280;36250;48.740;22.174;2023-03-13T04:44:34;100771.47;;;4.44;56.15
50349;BME280;36250;48.740;22.174;2023-03-13T04:47:00;100772.09;;;4.46;55.12
50349;BME280;36250;48.740;22.174;2023-03-13T04:49:25;100770.44;;;4.45;55.93
50349;BME280;36250;48.740;22.174;2023-03-13T04:51:51;100775.44;;;4.48;55.86
50349;BME280;36250;48.740;22.174;2023-03-13T04:54:16;100778.75;;;4.50;55.56
50349;BME280;36250;48.740;22.174;2023-03-13T04:56:41;100773.38;;;4.50;55.97
50349;BME280;36250;48.740;22.174;2023-03-13T04:59:07;100768.41;;;4.47;55.54
50349;BME280;36250;48.740;22.174;2023-03-13T05:01:32;100777.53;;;4.53;55.49
50349;BME280;36250;48.740;22.174;2023-03-13T05:03:58;100782.09;;;4.52;55.92
50349;BME280;36250;48.740;22.174;2023-03-13T05:06:23;100779.59;;;4.51;55.69
50349;BME280;36250;48.740;22.174;2023-03-13T05:08:48;100781.28;;;4.52;55.73
50349;BME280;36250;48.740;22.174;2023-03-13T05:11:14;100782.75;;;4.54;55.44
50349;BME280;36250;48.740;22.174;2023-03-13T05:13:39;100792.09;;;4.58;56.01
50349;BME280;36250;48.740;22.174;2023-03-13T05:16:05;100776.94;;;4.57;55.17
50349;BME280;36250;48.740;22.174;2023-03-13T05:18:30;100779.63;;;4.57;55.60
50349;BME280;36250;48.740;22.174;2023-03-13T05:20:55;100793.31;;;4.56;56.03
50349;BME280;36250;48.740;22.174;2023-03-13T05:23:21;100799.56;;;4.56;54.75
50349;BME280;36250;48.740;22.174;2023-03-13T05:25:46;100803.91;;;4.57;55.49
50349;BME280;36250;48.740;22.174;2023-03-13T05:28:11;100788.78;;;4.56;55.82
50349;BME280;36250;48.740;22.174;2023-03-13T05:30:37;100789.59;;;4.57;55.73
50349;BME280;36250;48.740;22.174;2023-03-13T05:33:02;100795.81;;;4.57;55.92
50349;BME280;36250;48.740;22.174;2023-03-13T05:35:28;100787.94;;;4.56;55.39
50349;BME280;36250;48.740;22.174;2023-03-13T05:37:53;100784.00;;;4.58;55.56
50349;BME280;36250;48.740;22.174;2023-03-13T05:40:18;100781.69;;;4.55;55.95
50349;BME280;36250;48.740;22.174;2023-03-13T05:42:44;100783.81;;;4.60;55.63
50349;BME280;36250;48.740;22.174;2023-03-13T05:45:10;100796.91;;;4.63;56.42
50349;BME280;36250;48.740;22.174;2023-03-13T05:47:36;100812.88;;;4.64;55.76
50349;BME280;36250;48.740;22.174;2023-03-13T05:50:03;100812.88;;;4.64;54.52
50349;BME280;36250;48.740;22.174;2023-03-13T05:52:29;100815.16;;;4.68;55.34
50349;BME280;36250;48.740;22.174;2023-03-13T05:54:54;100822.88;;;4.71;55.34
50349;BME280;36250;48.740;22.174;2023-03-13T05:57:19;100827.50;;;4.77;55.39
50349;BME280;36250;48.740;22.174;2023-03-13T05:59:45;100834.78;;;4.83;55.25
50349;BME280;36250;48.740;22.174;2023-03-13T06:02:10;100832.47;;;4.80;55.42
50349;BME280;36250;48.740;22.174;2023-03-13T06:04:35;100829.13;;;4.78;54.92
50349;BME280;36250;48.740;22.174;2023-03-13T06:07:01;100835.38;;;4.78;55.41
50349;BME280;36250;48.740;22.174;2023-03-13T06:09:26;100833.28;;;4.74;55.93
50349;BME280;36250;48.740;22.174;2023-03-13T06:11:52;100834.50;;;4.71;55.84
50349;BME280;36250;48.740;22.174;2023-03-13T06:14:17;100842.75;;;4.70;55.85
50349;BME280;36250;48.740;22.174;2023-03-13T06:16:43;100853.56;;;4.70;55.72
50349;BME280;36250;48.740;22.174;2023-03-13T06:19:08;100855.22;;;4.71;56.22
50349;BME280;36250;48.740;22.174;2023-03-13T06:21:33;100851.44;;;4.65;56.25
50349;BME280;36250;48.740;22.174;2023-03-13T06:23:59;100847.09;;;4.64;56.71
50349;BME280;36250;48.740;22.174;2023-03-13T06:26:24;100846.69;;;4.67;57.19
50349;BME280;36250;48.740;22.174;2023-03-13T06:28:50;100848.97;;;4.63;56.86
50349;BME280;36250;48.740;22.174;2023-03-13T06:31:16;100849.97;;;4.62;57.49
50349;BME280;36250;48.740;22.174;2023-03-13T06:33:41;100853.91;;;4.60;56.78
50349;BME280;36250;48.740;22.174;2023-03-13T06:36:07;100856.59;;;4.60;57.18
50349;BME280;36250;48.740;22.174;2023-03-13T06:38:32;100863.88;;;4.59;56.90
50349;BME280;36250;48.740;22.174;2023-03-13T06:40:58;100863.66;;;4.61;57.28
50349;BME280;36250;48.740;22.174;2023-03-13T06:43:23;100861.59;;;4.63;57.12
50349;BME280;36250;48.740;22.174;2023-03-13T06:45:49;100846.47;;;4.62;56.95
50349;BME280;36250;48.740;22.174;2023-03-13T06:48:15;100858.06;;;4.62;56.41
50349;BME280;36250;48.740;22.174;2023-03-13T06:50:41;100862.66;;;4.62;56.89
50349;BME280;36250;48.740;22.174;2023-03-13T06:53:06;100863.66;;;4.61;57.12
50349;BME280;36250;48.740;22.174;2023-03-13T06:55:32;100863.19;;;4.57;57.14
50349;BME280;36250;48.740;22.174;2023-03-13T06:57:57;100865.53;;;4.60;56.74
50349;BME280;36250;48.740;22.174;2023-03-13T07:00:23;100867.78;;;4.57;57.24
50349;BME280;36250;48.740;22.174;2023-03-13T07:02:49;100867.97;;;4.55;57.70
50349;BME280;36250;48.740;22.174;2023-03-13T07:05:15;100869.44;;;4.58;57.99
50349;BME280;36250;48.740;22.174;2023-03-13T07:07:41;100878.38;;;4.58;57.56
50349;BME280;36250;48.740;22.174;2023-03-13T07:10:08;100880.69;;;4.61;58.11
50349;BME280;36250;48.740;22.174;2023-03-13T07:12:35;100879.25;;;4.65;58.36
50349;BME280;36250;48.740;22.174;2023-03-13T07:15:01;100883.38;;;4.61;57.95
50349;BME280;36250;48.740;22.174;2023-03-13T07:17:26;100891.88;;;4.65;57.97
50349;BME280;36250;48.740;22.174;2023-03-13T07:19:51;100900.44;;;4.69;57.49
50349;BME280;36250;48.740;22.174;2023-03-13T07:22:16;100893.19;;;4.69;57.88
50349;BME280;36250;48.740;22.174;2023-03-13T07:24:42;100887.13;;;4.67;57.52
50349;BME280;36250;48.740;22.174;2023-03-13T07:27:07;100891.31;;;4.70;58.08
50349;BME280;36250;48.740;22.174;2023-03-13T07:29:32;100890.66;;;4.68;57.59
50349;BME280;36250;48.740;22.174;2023-03-13T07:31:58;100897.75;;;4.69;57.07
50349;BME280;36250;48.740;22.174;2023-03-13T07:34:23;100894.19;;;4.68;57.50
50349;BME280;36250;48.740;22.174;2023-03-13T07:36:48;100890.06;;;4.72;57.54
50349;BME280;36250;48.740;22.174;2023-03-13T07:39:14;100889.53;;;4.77;57.73
50349;BME280;36250;48.740;22.174;2023-03-13T07:41:39;100883.88;;;4.72;56.54
50349;BME280;36250;48.740;22.174;2023-03-13T07:44:05;100878.47;;;4.72;56.96
50349;BME280;36250;48.740;22.174;2023-03-13T07:46:30;100892.59;;;4.74;57.12
50349;BME280;36250;48.740;22.174;2023-03-13T07:48:55;100883.22;;;4.70;56.47
50349;BME280;36250;48.740;22.174;2023-03-13T07:51:22;100898.38;;;4.71;56.08
50349;BME280;36250;48.740;22.174;2023-03-13T07:53:49;100898.84;;;4.74;57.66
50349;BME280;36250;48.740;22.174;2023-03-13T07:56:17;100895.53;;;4.79;57.28
50349;BME280;36250;48.740;22.174;2023-03-13T07:58:43;100886.41;;;4.80;57.55
50349;BME280;36250;48.740;22.174;2023-03-13T08:01:09;100888.94;;;4.81;57.49
50349;BME280;36250;48.740;22.174;2023-03-13T08:03:35;100883.31;;;4.83;57.45
50349;BME280;36250;48.740;22.174;2023-03-13T08:06:03;100887.69;;;4.84;57.23
50349;BME280;36250;48.740;22.174;2023-03-13T08:08:29;100891.66;;;4.88;57.69
50349;BME280;36250;48.740;22.174;2023-03-13T08:10:59;100895.19;;;4.88;57.70
50349;BME280;36250;48.740;22.174;2023-03-13T08:13:25;100890.66;;;4.89;57.32
50349;BME280;36250;48.740;22.174;2023-03-13T08:15:50;100894.34;;;4.88;57.04
50349;BME280;36250;48.740;22.174;2023-03-13T08:18:15;100895.19;;;4.88;57.77
50349;BME280;36250;48.740;22.174;2023-03-13T08:20:41;100889.41;;;4.91;57.78
50349;BME280;36250;48.740;22.174;2023-03-13T08:23:06;100881.75;;;4.95;56.91
50349;BME280;36250;48.740;22.174;2023-03-13T08:25:31;100885.06;;;4.97;57.01
50349;BME280;36250;48.740;22.174;2023-03-13T08:27:57;100874.50;;;4.95;56.66
50349;BME280;36250;48.740;22.174;2023-03-13T08:30:22;100880.72;;;4.96;56.77
50349;BME280;36250;48.740;22.174;2023-03-13T08:32:48;100877.44;;;5.00;56.78
50349;BME280;36250;48.740;22.174;2023-03-13T08:35:13;100869.13;;;5.02;57.23
50349;BME280;36250;48.740;22.174;2023-03-13T08:37:38;100869.59;;;5.05;56.71
50349;BME280;36250;48.740;22.174;2023-03-13T08:40:04;100870.47;;;5.12;56.64
50349;BME280;36250;48.740;22.174;2023-03-13T08:42:34;100850.69;;;5.05;56.30
50349;BME280;36250;48.740;22.174;2023-03-13T08:45:00;100864.66;;;5.15;56.73
50349;BME280;36250;48.740;22.174;2023-03-13T08:47:25;100862.38;;;5.19;56.95
50349;BME280;36250;48.740;22.174;2023-03-13T08:49:50;100867.41;;;5.22;56.81
50349;BME280;36250;48.740;22.174;2023-03-13T08:52:16;100855.16;;;5.26;56.15
50349;BME280;36250;48.740;22.174;2023-03-13T08:54:41;100863.50;;;5.31;56.58
50349;BME280;36250;48.740;22.174;2023-03-13T08:57:06;100850.44;;;5.35;55.89
50349;BME280;36250;48.740;22.174;2023-03-13T08:59:32;100846.50;;;5.37;55.28
50349;BME280;36250;48.740;22.174;2023-03-13T09:01:57;100838.66;;;5.42;55.64
50349;BME280;36250;48.740;22.174;2023-03-13T09:04:22;100835.53;;;5.45;55.71
50349;BME280;36250;48.740;22.174;2023-03-13T09:06:48;100844.06;;;5.49;56.20
50349;BME280;36250;48.740;22.174;2023-03-13T09:09:13;100842.44;;;5.54;54.80
50349;BME280;36250;48.740;22.174;2023-03-13T09:11:39;100846.38;;;5.58;55.45
50349;BME280;36250;48.740;22.174;2023-03-13T09:14:05;100838.28;;;5.58;55.40
50349;BME280;36250;48.740;22.174;2023-03-13T09:16:32;100839.13;;;5.59;55.16
50349;BME280;36250;48.740;22.174;2023-03-13T09:18:58;100843.28;;;5.61;55.57
50349;BME280;36250;48.740;22.174;2023-03-13T09:21:29;100846.19;;;5.60;54.43
50349;BME280;36250;48.740;22.174;2023-03-13T09:23:55;100829.09;;;5.46;54.77
50349;BME280;36250;48.740;22.174;2023-03-13T09:26:21;100851.78;;;5.58;55.33
50349;BME280;36250;48.740;22.174;2023-03-13T09:28:47;100843.28;;;5.61;54.59
50349;BME280;36250;48.740;22.174;2023-03-13T09:31:15;100841.84;;;5.65;55.43
50349;BME280;36250;48.740;22.174;2023-03-13T09:33:43;100828.56;;;5.70;55.23
50349;BME280;36250;48.740;22.174;2023-03-13T09:36:09;100841.22;;;5.70;55.24
50349;BME280;36250;48.740;22.174;2023-03-13T09:38:35;100838.72;;;5.68;55.50
50349;BME280;36250;48.740;22.174;2023-03-13T09:41:22;100840.63;;;5.74;55.09
50349;BME280;36250;48.740;22.174;2023-03-13T09:44:02;100839.59;;;5.75;55.05
50349;BME280;36250;48.740;22.174;2023-03-13T09:46:40;100838.56;;;5.76;55.00
50349;BME280;36250;48.740;22.174;2023-03-13T09:49:26;100830.00;;;5.73;55.22
50349;BME280;36250;48.740;22.174;2023-03-13T09:51:59;100826.47;;;5.72;54.65
50349;BME280;36250;48.740;22.174;2023-03-13T09:54:35;100826.06;;;5.75;55.60
50349;BME280;36250;48.740;22.174;2023-03-13T09:57:21;100826.50;;;5.79;55.06
50349;BME280;36250;48.740;22.174;2023-03-13T09:59:57;100830.06;;;5.79;54.94
50349;BME280;36250;48.740;22.174;2023-03-13T10:02:33;100831.69;;;5.80;54.91
50349;BME280;36250;48.740;22.174;2023-03-13T10:07:28;100834.63;;;5.79;55.80
50349;BME280;36250;48.740;22.174;2023-03-13T10:09:53;100833.78;;;5.78;55.73
50349;BME280;36250;48.740;22.174;2023-03-13T10:12:23;100836.72;;;5.83;55.93
50349;BME280;36250;48.740;22.174;2023-03-13T10:17:39;100840.03;;;5.79;55.41
50349;BME280;36250;48.740;22.174;2023-03-13T10:22:44;100845.66;;;5.84;55.46
50349;BME280;36250;48.740;22.174;2023-03-13T10:25:34;100841.75;;;5.86;55.12
50349;BME280;36250;48.740;22.174;2023-03-13T10:28:01;100836.34;;;5.86;55.52
50349;BME280;36250;48.740;22.174;2023-03-13T10:30:27;100843.38;;;5.87;55.33
50349;BME280;36250;48.740;22.174;2023-03-13T10:33:18;100834.25;;;5.88;55.12
50349;BME280;36250;48.740;22.174;2023-03-13T10:35:43;100828.69;;;5.97;55.98
50349;BME280;36250;48.740;22.174;2023-03-13T10:38:13;100832.63;;;6.07;56.39
50349;BME280;36250;48.740;22.174;2023-03-13T10:40:39;100835.94;;;6.09;56.41
50349;BME280;36250;48.740;22.174;2023-03-13T10:43:18;100834.50;;;6.13;56.22
50349;BME280;36250;48.740;22.174;2023-03-13T10:45:44;100824.31;;;6.09;55.26
50349;BME280;36250;48.740;22.174;2023-03-13T10:48:17;100834.28;;;6.15;55.12
50349;BME280;36250;48.740;22.174;2023-03-13T10:50:45;100830.34;;;6.11;55.83
50349;BME280;36250;48.740;22.174;2023-03-13T10:55:48;100822.66;;;6.14;55.59
50349;BME280;36250;48.740;22.174;2023-03-13T10:58:22;100823.47;;;6.21;55.67
50349;BME280;36250;48.740;22.174;2023-03-13T11:00:49;100822.44;;;6.29;55.83
50349;BME280;36250;48.740;22.174;2023-03-13T11:03:17;100813.94;;;6.32;55.40
50349;BME280;36250;48.740;22.174;2023-03-13T11:05:45;100820.41;;;6.37;55.14
50349;BME280;36250;48.740;22.174;2023-03-13T11:08:26;100815.38;;;6.41;55.25
50349;BME280;36250;48.740;22.174;2023-03-13T11:10:55;100822.28;;;6.50;55.55
50349;BME280;36250;48.740;22.174;2023-03-13T11:15:57;100805.59;;;6.53;55.42
50349;BME280;36250;48.740;22.174;2023-03-13T11:18:39;100798.53;;;6.58;55.49
50349;BME280;36250;48.740;22.174;2023-03-13T11:21:13;100794.78;;;6.66;55.18
50349;BME280;36250;48.740;22.174;2023-03-13T11:23:45;100792.91;;;6.80;55.97
50349;BME280;36250;48.740;22.174;2023-03-13T11:31:56;100777.63;;;7.11;55.02
50349;BME280;36250;48.740;22.174;2023-03-13T11:34:46;100776.53;;;7.19;54.10
50349;BME280;36250;48.740;22.174;2023-03-13T11:37:18;100772.78;;;7.20;53.84
50349;BME280;36250;48.740;22.174;2023-03-13T11:40:11;100773.63;;;7.20;54.06
50349;BME280;36250;48.740;22.174;2023-03-13T11:43:19;100754.19;;;7.30;53.83
50349;BME280;36250;48.740;22.174;2023-03-13T11:48:36;100735.38;;;7.42;53.44
50349;BME280;36250;48.740;22.174;2023-03-13T11:57:11;100723.59;;;7.67;52.44
50349;BME280;36250;48.740;22.174;2023-03-13T12:00:02;100712.25;;;7.77;52.43
50349;BME280;36250;48.740;22.174;2023-03-13T12:02:38;100708.38;;;7.91;52.22
50349;BME280;36250;48.740;22.174;2023-03-13T12:05:08;100709.66;;;8.13;52.33
50349;BME280;36250;48.740;22.174;2023-03-13T12:07:38;100700.72;;;8.37;51.48
50349;BME280;36250;48.740;22.174;2023-03-13T12:10:25;100695.59;;;8.66;50.56
50349;BME280;36250;48.740;22.174;2023-03-13T12:13:04;100692.66;;;9.03;50.22
50349;BME280;36250;48.740;22.174;2023-03-13T12:20:33;100660.22;;;9.79;48.54
50349;BME280;36250;48.740;22.174;2023-03-13T12:25:43;100664.81;;;9.90;46.75
50349;BME280;36250;48.740;22.174;2023-03-13T12:28:22;100663.97;;;9.78;47.44
50349;BME280;36250;48.740;22.174;2023-03-13T12:31:21;100654.97;;;10.19;47.20
50349;BME280;36250;48.740;22.174;2023-03-13T12:36:47;100618.78;;;16.34;35.36
50349;BME280;36250;48.740;22.174;2023-03-13T12:41:53;100605.13;;;21.17;27.19
50349;BME280;36250;48.740;22.174;2023-03-13T12:44:23;100604.53;;;22.22;25.03
50349;BME280;36250;48.740;22.174;2023-03-13T12:47:00;100599.56;;;23.45;22.83
50349;BME280;36250;48.740;22.174;2023-03-13T12:55:32;100597.75;;;25.02;20.92
50349;BME280;36250;48.740;22.174;2023-03-13T12:58:12;100598.28;;;23.60;21.95
50349;BME280;36250;48.740;22.174;2023-03-13T13:00:42;100604.50;;;21.55;24.49
50349;BME280;36250;48.740;22.174;2023-03-13T13:03:44;100603.84;;;19.63;26.81
50349;BME280;36250;48.740;22.174;2023-03-13T13:06:10;100601.50;;;19.33;27.52
50349;BME280;36250;48.740;22.174;2023-03-13T13:08:41;100594.41;;;17.46;29.78
50349;BME280;36250;48.740;22.174;2023-03-13T13:14:05;100583.91;;;19.98;26.87
50349;BME280;36250;48.740;22.174;2023-03-13T13:24:53;100575.63;;;25.26;20.95
50349;BME280;36250;48.740;22.174;2023-03-13T13:30:00;100546.16;;;23.57;22.36
50349;BME280;36250;48.740;22.174;2023-03-13T13:37:30;100545.34;;;18.39;28.75
50349;BME280;36250;48.740;22.174;2023-03-13T13:43:03;100547.31;;;17.08;31.88
50349;BME280;36250;48.740;22.174;2023-03-13T13:45:35;100541.91;;;18.00;30.42
50349;BME280;36250;48.740;22.174;2023-03-13T13:48:25;100533.50;;;19.74;28.75
50349;BME280;36250;48.740;22.174;2023-03-13T13:59:35;100525.13;;;22.74;23.68
50349;BME280;36250;48.740;22.174;2023-03-13T14:04:37;100506.44;;;22.57;23.55
50349;BME280;36250;48.740;22.174;2023-03-13T14:07:05;100509.50;;;23.21;22.86
50349;BME280;36250;48.740;22.174;2023-03-13T14:12:30;100498.88;;;23.48;22.53
50349;BME280;36250;48.740;22.174;2023-03-13T14:17:51;100492.69;;;21.51;24.23
50349;BME280;36250;48.740;22.174;2023-03-13T14:22:52;100488.69;;;18.75;27.99
50349;BME280;36250;48.740;22.174;2023-03-13T14:25:20;100480.03;;;18.63;28.19
50349;BME280;36250;48.740;22.174;2023-03-13T14:27:47;100476.13;;;17.36;29.96
50349;BME280;36250;48.740;22.174;2023-03-13T14:30:15;100486.41;;;16.22;31.74